Terminal Aerodrome Forecast
Issued by NWS Duluth, MN

Home | Current Version | Previous Version | Text Only | Print | Product List | Glossary On
Versions: 1 2 3 4 5 6 7 8 9 10 11 12 13 14 15
000
FTUS43 KDLH 030900 AAA
TAFDLH
TAF AMD
KDLH 030900Z 0309/0406 19008KT P6SM BKN100 WS015/22040KT
     FM031400 22009KT P6SM SCT100
     FM031800 28010G18KT 5SM -SHRA VCTS BKN050CB
     FM032100 32013G23KT P6SM VCSH BKN080
     FM040100 30007KT P6SM SCT100=

USA.gov is the U.S. government's official web portal to all federal, state and local government web resources and services.